sensor_id;sensor_type;location;lat;lon;timestamp;P1;durP1;ratioP1;P2;durP2;ratioP2
76656;SDS011;65576;47.714;9.414;2023-12-28T00:01:36;4.28;;;2.40;;
76656;SDS011;65576;47.714;9.414;2023-12-28T00:04:01;2.50;;;1.77;;
76656;SDS011;65576;47.714;9.414;2023-12-28T00:06:26;1.70;;;1.60;;
76656;SDS011;65576;47.714;9.414;2023-12-28T00:08:51;1.83;;;1.58;;
76656;SDS011;65576;47.714;9.414;2023-12-28T00:11:17;1.98;;;1.52;;
76656;SDS011;65576;47.714;9.414;2023-12-28T00:13:42;2.72;;;1.33;;
76656;SDS011;65576;47.714;9.414;2023-12-28T00:16:07;1.45;;;1.33;;
76656;SDS011;65576;47.714;9.414;2023-12-28T00:18:33;2.05;;;1.90;;
76656;SDS011;65576;47.714;9.414;2023-12-28T00:20:58;2.15;;;1.80;;
76656;SDS011;65576;47.714;9.414;2023-12-28T00:23:23;1.48;;;1.38;;
76656;SDS011;65576;47.714;9.414;2023-12-28T00:25:49;1.60;;;1.40;;
76656;SDS011;65576;47.714;9.414;2023-12-28T00:28:14;2.78;;;1.98;;
76656;SDS011;65576;47.714;9.414;2023-12-28T00:30:39;2.10;;;1.52;;
76656;SDS011;65576;47.714;9.414;2023-12-28T00:33:05;1.88;;;1.77;;
76656;SDS011;65576;47.714;9.414;2023-12-28T00:35:30;5.82;;;2.08;;
76656;SDS011;65576;47.714;9.414;2023-12-28T00:37:55;3.00;;;1.73;;
76656;SDS011;65576;47.714;9.414;2023-12-28T00:40:21;2.92;;;2.20;;
76656;SDS011;65576;47.714;9.414;2023-12-28T00:42:47;2.55;;;2.33;;
76656;SDS011;65576;47.714;9.414;2023-12-28T00:45:12;2.95;;;2.00;;
76656;SDS011;65576;47.714;9.414;2023-12-28T00:47:37;2.25;;;1.50;;
76656;SDS011;65576;47.714;9.414;2023-12-28T00:50:03;5.50;;;1.55;;
76656;SDS011;65576;47.714;9.414;2023-12-28T00:52:29;1.08;;;0.95;;
76656;SDS011;65576;47.714;9.414;2023-12-28T00:54:54;2.17;;;1.42;;
76656;SDS011;65576;47.714;9.414;2023-12-28T00:57:19;1.83;;;1.63;;
76656;SDS011;65576;47.714;9.414;2023-12-28T00:59:45;2.70;;;2.42;;
76656;SDS011;65576;47.714;9.414;2023-12-28T01:02:10;1.15;;;1.13;;
76656;SDS011;65576;47.714;9.414;2023-12-28T01:04:35;4.10;;;2.05;;
76656;SDS011;65576;47.714;9.414;2023-12-28T01:07:01;3.03;;;2.58;;
76656;SDS011;65576;47.714;9.414;2023-12-28T01:09:27;3.03;;;2.72;;
76656;SDS011;65576;47.714;9.414;2023-12-28T01:11:53;2.53;;;1.92;;
76656;SDS011;65576;47.714;9.414;2023-12-28T01:14:18;1.92;;;1.58;;
76656;SDS011;65576;47.714;9.414;2023-12-28T01:16:43;3.08;;;2.75;;
76656;SDS011;65576;47.714;9.414;2023-12-28T01:19:09;6.35;;;0.73;;
76656;SDS011;65576;47.714;9.414;2023-12-28T01:21:34;2.42;;;2.00;;
76656;SDS011;65576;47.714;9.414;2023-12-28T01:23:59;1.65;;;1.42;;
76656;SDS011;65576;47.714;9.414;2023-12-28T01:26:25;2.30;;;2.17;;
76656;SDS011;65576;47.714;9.414;2023-12-28T01:28:50;2.28;;;2.08;;
76656;SDS011;65576;47.714;9.414;2023-12-28T01:31:15;1.27;;;1.10;;
76656;SDS011;65576;47.714;9.414;2023-12-28T01:33:41;2.45;;;1.75;;
76656;SDS011;65576;47.714;9.414;2023-12-28T01:36:18;0.95;;;0.93;;
76656;SDS011;65576;47.714;9.414;2023-12-28T01:38:44;2.80;;;2.30;;
76656;SDS011;65576;47.714;9.414;2023-12-28T01:41:10;2.80;;;2.15;;
76656;SDS011;65576;47.714;9.414;2023-12-28T01:43:35;1.55;;;1.45;;
76656;SDS011;65576;47.714;9.414;2023-12-28T01:46:01;1.63;;;1.27;;
76656;SDS011;65576;47.714;9.414;2023-12-28T01:48:26;2.55;;;1.20;;
76656;SDS011;65576;47.714;9.414;2023-12-28T01:50:52;3.08;;;2.08;;
76656;SDS011;65576;47.714;9.414;2023-12-28T01:53:18;2.45;;;1.48;;
76656;SDS011;65576;47.714;9.414;2023-12-28T01:55:43;1.25;;;0.80;;
76656;SDS011;65576;47.714;9.414;2023-12-28T01:58:09;2.70;;;2.03;;
76656;SDS011;65576;47.714;9.414;2023-12-28T02:00:34;1.80;;;1.50;;
76656;SDS011;65576;47.714;9.414;2023-12-28T02:03:03;2.58;;;1.60;;
76656;SDS011;65576;47.714;9.414;2023-12-28T02:05:28;1.25;;;1.15;;
76656;SDS011;65576;47.714;9.414;2023-12-28T02:07:53;1.95;;;1.75;;
76656;SDS011;65576;47.714;9.414;2023-12-28T02:10:19;1.77;;;1.65;;
76656;SDS011;65576;47.714;9.414;2023-12-28T02:12:44;1.10;;;1.08;;
76656;SDS011;65576;47.714;9.414;2023-12-28T02:15:09;1.83;;;1.27;;
76656;SDS011;65576;47.714;9.414;2023-12-28T02:20:02;1.35;;;1.25;;
76656;SDS011;65576;47.714;9.414;2023-12-28T02:22:32;1.55;;;1.45;;
76656;SDS011;65576;47.714;9.414;2023-12-28T02:25:05;1.00;;;1.00;;
76656;SDS011;65576;47.714;9.414;2023-12-28T02:27:35;2.40;;;1.58;;
76656;SDS011;65576;47.714;9.414;2023-12-28T02:30:02;2.20;;;1.58;;
76656;SDS011;65576;47.714;9.414;2023-12-28T02:32:33;1.33;;;1.15;;
76656;SDS011;65576;47.714;9.414;2023-12-28T02:35:06;2.03;;;1.38;;
76656;SDS011;65576;47.714;9.414;2023-12-28T02:37:37;4.35;;;2.17;;
76656;SDS011;65576;47.714;9.414;2023-12-28T02:40:03;1.92;;;1.73;;
76656;SDS011;65576;47.714;9.414;2023-12-28T02:42:29;1.90;;;1.80;;
76656;SDS011;65576;47.714;9.414;2023-12-28T02:44:54;1.90;;;1.58;;
76656;SDS011;65576;47.714;9.414;2023-12-28T02:47:19;2.10;;;1.55;;
76656;SDS011;65576;47.714;9.414;2023-12-28T02:49:45;1.98;;;1.80;;
76656;SDS011;65576;47.714;9.414;2023-12-28T02:52:10;0.95;;;0.95;;
76656;SDS011;65576;47.714;9.414;2023-12-28T02:54:35;5.82;;;2.65;;
76656;SDS011;65576;47.714;9.414;2023-12-28T02:57:01;2.35;;;1.63;;
76656;SDS011;65576;47.714;9.414;2023-12-28T02:59:26;2.08;;;1.88;;
76656;SDS011;65576;47.714;9.414;2023-12-28T03:01:51;3.67;;;1.88;;
76656;SDS011;65576;47.714;9.414;2023-12-28T03:04:16;3.35;;;2.17;;
76656;SDS011;65576;47.714;9.414;2023-12-28T03:06:42;2.05;;;1.95;;
76656;SDS011;65576;47.714;9.414;2023-12-28T03:09:07;4.82;;;1.38;;
76656;SDS011;65576;47.714;9.414;2023-12-28T03:11:32;1.92;;;1.75;;
76656;SDS011;65576;47.714;9.414;2023-12-28T03:13:58;5.47;;;2.15;;
76656;SDS011;65576;47.714;9.414;2023-12-28T03:16:23;1.33;;;1.10;;
76656;SDS011;65576;47.714;9.414;2023-12-28T03:18:48;2.33;;;1.88;;
76656;SDS011;65576;47.714;9.414;2023-12-28T03:21:14;3.60;;;2.65;;
76656;SDS011;65576;47.714;9.414;2023-12-28T03:23:39;2.25;;;1.58;;
76656;SDS011;65576;47.714;9.414;2023-12-28T03:26:04;1.08;;;1.00;;
76656;SDS011;65576;47.714;9.414;2023-12-28T03:28:29;2.03;;;1.85;;
76656;SDS011;65576;47.714;9.414;2023-12-28T03:30:55;1.77;;;1.60;;
76656;SDS011;65576;47.714;9.414;2023-12-28T03:33:20;1.45;;;1.33;;
76656;SDS011;65576;47.714;9.414;2023-12-28T03:35:46;2.10;;;1.40;;
76656;SDS011;65576;47.714;9.414;2023-12-28T03:38:11;1.63;;;1.42;;
76656;SDS011;65576;47.714;9.414;2023-12-28T03:40:36;3.63;;;1.67;;
76656;SDS011;65576;47.714;9.414;2023-12-28T03:43:01;0.80;;;0.80;;
76656;SDS011;65576;47.714;9.414;2023-12-28T03:45:27;1.45;;;1.35;;
76656;SDS011;65576;47.714;9.414;2023-12-28T03:47:52;1.33;;;1.08;;
76656;SDS011;65576;47.714;9.414;2023-12-28T03:50:17;1.33;;;1.23;;
76656;SDS011;65576;47.714;9.414;2023-12-28T03:52:43;4.28;;;1.60;;
76656;SDS011;65576;47.714;9.414;2023-12-28T03:55:08;1.42;;;1.33;;
76656;SDS011;65576;47.714;9.414;2023-12-28T03:57:34;1.02;;;1.02;;
76656;SDS011;65576;47.714;9.414;2023-12-28T03:59:59;1.75;;;1.23;;
76656;SDS011;65576;47.714;9.414;2023-12-28T04:02:24;0.60;;;0.60;;
76656;SDS011;65576;47.714;9.414;2023-12-28T04:04:52;1.75;;;1.45;;
76656;SDS011;65576;47.714;9.414;2023-12-28T04:07:17;1.40;;;1.08;;
76656;SDS011;65576;47.714;9.414;2023-12-28T04:09:43;2.08;;;1.38;;
76656;SDS011;65576;47.714;9.414;2023-12-28T04:12:08;1.50;;;1.40;;
76656;SDS011;65576;47.714;9.414;2023-12-28T04:14:34;2.40;;;1.40;;
76656;SDS011;65576;47.714;9.414;2023-12-28T04:17:00;1.65;;;1.27;;
76656;SDS011;65576;47.714;9.414;2023-12-28T04:19:25;2.17;;;1.67;;
76656;SDS011;65576;47.714;9.414;2023-12-28T04:21:50;1.90;;;1.05;;
76656;SDS011;65576;47.714;9.414;2023-12-28T04:24:16;2.75;;;1.55;;
76656;SDS011;65576;47.714;9.414;2023-12-28T04:26:41;1.70;;;1.23;;
76656;SDS011;65576;47.714;9.414;2023-12-28T04:29:06;2.58;;;2.17;;
76656;SDS011;65576;47.714;9.414;2023-12-28T04:31:32;0.50;;;0.50;;
76656;SDS011;65576;47.714;9.414;2023-12-28T04:33:57;1.55;;;1.45;;
76656;SDS011;65576;47.714;9.414;2023-12-28T04:36:22;2.28;;;1.65;;
76656;SDS011;65576;47.714;9.414;2023-12-28T04:38:48;2.17;;;1.38;;
76656;SDS011;65576;47.714;9.414;2023-12-28T04:41:13;2.70;;;2.50;;
76656;SDS011;65576;47.714;9.414;2023-12-28T04:43:38;1.50;;;1.30;;
76656;SDS011;65576;47.714;9.414;2023-12-28T04:46:04;2.85;;;1.50;;
76656;SDS011;65576;47.714;9.414;2023-12-28T04:48:30;1.65;;;1.52;;
76656;SDS011;65576;47.714;9.414;2023-12-28T04:50:55;1.83;;;1.70;;
76656;SDS011;65576;47.714;9.414;2023-12-28T04:53:21;1.27;;;1.05;;
76656;SDS011;65576;47.714;9.414;2023-12-28T04:55:46;0.80;;;0.80;;
76656;SDS011;65576;47.714;9.414;2023-12-28T04:58:11;1.00;;;0.85;;
76656;SDS011;65576;47.714;9.414;2023-12-28T05:00:37;5.05;;;2.05;;
76656;SDS011;65576;47.714;9.414;2023-12-28T05:03:02;1.77;;;1.63;;
76656;SDS011;65576;47.714;9.414;2023-12-28T05:05:28;2.33;;;1.38;;
76656;SDS011;65576;47.714;9.414;2023-12-28T05:07:53;1.33;;;1.23;;
76656;SDS011;65576;47.714;9.414;2023-12-28T05:10:18;2.55;;;1.70;;
76656;SDS011;65576;47.714;9.414;2023-12-28T05:12:43;1.40;;;1.23;;
76656;SDS011;65576;47.714;9.414;2023-12-28T05:15:09;2.58;;;1.75;;
76656;SDS011;65576;47.714;9.414;2023-12-28T05:17:34;2.08;;;1.92;;
76656;SDS011;65576;47.714;9.414;2023-12-28T05:20:00;2.50;;;1.67;;
76656;SDS011;65576;47.714;9.414;2023-12-28T05:22:25;1.85;;;1.70;;
76656;SDS011;65576;47.714;9.414;2023-12-28T05:24:50;2.20;;;1.98;;
76656;SDS011;65576;47.714;9.414;2023-12-28T05:27:15;1.95;;;1.48;;
76656;SDS011;65576;47.714;9.414;2023-12-28T05:29:41;2.22;;;1.92;;
76656;SDS011;65576;47.714;9.414;2023-12-28T05:32:06;0.85;;;0.85;;
76656;SDS011;65576;47.714;9.414;2023-12-28T05:34:31;0.57;;;0.57;;
76656;SDS011;65576;47.714;9.414;2023-12-28T05:36:57;3.22;;;1.85;;
76656;SDS011;65576;47.714;9.414;2023-12-28T05:39:22;0.82;;;0.82;;
76656;SDS011;65576;47.714;9.414;2023-12-28T05:41:47;1.13;;;1.13;;
76656;SDS011;65576;47.714;9.414;2023-12-28T05:44:15;1.15;;;1.05;;
76656;SDS011;65576;47.714;9.414;2023-12-28T05:46:40;1.20;;;1.05;;
76656;SDS011;65576;47.714;9.414;2023-12-28T05:49:06;1.95;;;1.42;;
76656;SDS011;65576;47.714;9.414;2023-12-28T05:51:37;2.72;;;1.65;;
76656;SDS011;65576;47.714;9.414;2023-12-28T05:54:05;1.98;;;1.77;;
76656;SDS011;65576;47.714;9.414;2023-12-28T05:56:30;1.10;;;1.00;;
76656;SDS011;65576;47.714;9.414;2023-12-28T05:58:56;2.10;;;1.48;;
76656;SDS011;65576;47.714;9.414;2023-12-28T06:01:21;1.67;;;1.58;;
76656;SDS011;65576;47.714;9.414;2023-12-28T06:03:46;1.45;;;1.35;;
76656;SDS011;65576;47.714;9.414;2023-12-28T06:06:14;0.95;;;0.95;;
76656;SDS011;65576;47.714;9.414;2023-12-28T06:08:39;5.00;;;1.77;;
76656;SDS011;65576;47.714;9.414;2023-12-28T06:11:05;1.05;;;0.95;;
76656;SDS011;65576;47.714;9.414;2023-12-28T06:13:30;3.67;;;1.27;;
76656;SDS011;65576;47.714;9.414;2023-12-28T06:15:55;1.52;;;1.42;;
76656;SDS011;65576;47.714;9.414;2023-12-28T06:18:21;1.70;;;1.60;;
76656;SDS011;65576;47.714;9.414;2023-12-28T06:20:47;7.20;;;2.40;;
76656;SDS011;65576;47.714;9.414;2023-12-28T06:23:12;2.45;;;1.60;;
76656;SDS011;65576;47.714;9.414;2023-12-28T06:25:37;2.13;;;1.77;;
76656;SDS011;65576;47.714;9.414;2023-12-28T06:28:03;1.58;;;1.48;;
76656;SDS011;65576;47.714;9.414;2023-12-28T06:30:28;2.03;;;1.77;;
76656;SDS011;65576;47.714;9.414;2023-12-28T06:32:54;1.35;;;1.10;;
76656;SDS011;65576;47.714;9.414;2023-12-28T06:35:19;2.85;;;2.00;;
76656;SDS011;65576;47.714;9.414;2023-12-28T06:37:45;1.92;;;1.20;;
76656;SDS011;65576;47.714;9.414;2023-12-28T06:40:10;1.90;;;1.77;;
76656;SDS011;65576;47.714;9.414;2023-12-28T06:42:36;3.45;;;1.77;;
76656;SDS011;65576;47.714;9.414;2023-12-28T06:45:01;5.00;;;1.85;;
76656;SDS011;65576;47.714;9.414;2023-12-28T06:47:27;4.40;;;2.50;;
76656;SDS011;65576;47.714;9.414;2023-12-28T06:49:52;4.22;;;1.90;;
76656;SDS011;65576;47.714;9.414;2023-12-28T06:52:17;3.30;;;1.95;;
76656;SDS011;65576;47.714;9.414;2023-12-28T06:54:43;2.45;;;2.25;;
76656;SDS011;65576;47.714;9.414;2023-12-28T06:57:08;2.83;;;2.55;;
76656;SDS011;65576;47.714;9.414;2023-12-28T06:59:33;3.00;;;2.00;;
76656;SDS011;65576;47.714;9.414;2023-12-28T07:01:58;4.00;;;2.88;;
76656;SDS011;65576;47.714;9.414;2023-12-28T07:04:24;3.70;;;1.77;;
76656;SDS011;65576;47.714;9.414;2023-12-28T07:06:51;1.17;;;1.17;;
76656;SDS011;65576;47.714;9.414;2023-12-28T07:09:17;2.08;;;1.90;;
76656;SDS011;65576;47.714;9.414;2023-12-28T07:11:42;2.65;;;2.45;;
76656;SDS011;65576;47.714;9.414;2023-12-28T07:14:07;1.90;;;1.77;;
76656;SDS011;65576;47.714;9.414;2023-12-28T07:16:32;1.88;;;1.40;;
76656;SDS011;65576;47.714;9.414;2023-12-28T07:18:58;1.80;;;1.38;;
76656;SDS011;65576;47.714;9.414;2023-12-28T07:21:23;2.00;;;1.20;;
76656;SDS011;65576;47.714;9.414;2023-12-28T07:23:48;1.73;;;1.55;;
76656;SDS011;65576;47.714;9.414;2023-12-28T07:26:14;1.73;;;1.38;;
76656;SDS011;65576;47.714;9.414;2023-12-28T07:28:40;2.28;;;1.83;;
76656;SDS011;65576;47.714;9.414;2023-12-28T07:31:07;1.20;;;1.10;;
76656;SDS011;65576;47.714;9.414;2023-12-28T07:33:32;2.65;;;1.83;;
76656;SDS011;65576;47.714;9.414;2023-12-28T07:35:58;3.22;;;2.92;;
76656;SDS011;65576;47.714;9.414;2023-12-28T07:38:27;1.52;;;1.38;;
76656;SDS011;65576;47.714;9.414;2023-12-28T07:40:52;2.40;;;2.20;;
76656;SDS011;65576;47.714;9.414;2023-12-28T07:43:18;2.10;;;2.00;;
76656;SDS011;65576;47.714;9.414;2023-12-28T07:45:43;2.63;;;1.67;;
76656;SDS011;65576;47.714;9.414;2023-12-28T07:48:08;6.35;;;2.83;;
76656;SDS011;65576;47.714;9.414;2023-12-28T07:50:34;2.42;;;2.22;;
76656;SDS011;65576;47.714;9.414;2023-12-28T07:52:59;2.50;;;2.30;;
76656;SDS011;65576;47.714;9.414;2023-12-28T07:55:25;5.65;;;4.15;;
76656;SDS011;65576;47.714;9.414;2023-12-28T07:57:51;3.53;;;2.20;;
76656;SDS011;65576;47.714;9.414;2023-12-28T08:00:16;2.92;;;2.58;;
76656;SDS011;65576;47.714;9.414;2023-12-28T08:02:41;1.98;;;1.73;;
76656;SDS011;65576;47.714;9.414;2023-12-28T08:05:07;2.30;;;2.10;;
76656;SDS011;65576;47.714;9.414;2023-12-28T08:07:33;3.10;;;2.00;;
76656;SDS011;65576;47.714;9.414;2023-12-28T08:09:58;2.90;;;2.65;;
76656;SDS011;65576;47.714;9.414;2023-12-28T08:12:23;3.85;;;2.50;;
76656;SDS011;65576;47.714;9.414;2023-12-28T08:14:49;3.05;;;2.75;;
76656;SDS011;65576;47.714;9.414;2023-12-28T08:17:15;5.10;;;3.38;;
76656;SDS011;65576;47.714;9.414;2023-12-28T08:19:40;8.05;;;4.53;;
76656;SDS011;65576;47.714;9.414;2023-12-28T08:22:05;9.20;;;6.60;;
76656;SDS011;65576;47.714;9.414;2023-12-28T08:24:31;7.03;;;4.60;;
76656;SDS011;65576;47.714;9.414;2023-12-28T08:26:57;3.88;;;3.15;;
76656;SDS011;65576;47.714;9.414;2023-12-28T08:29:24;1.58;;;1.48;;
76656;SDS011;65576;47.714;9.414;2023-12-28T08:31:49;3.30;;;2.30;;
76656;SDS011;65576;47.714;9.414;2023-12-28T08:34:15;4.70;;;3.45;;
76656;SDS011;65576;47.714;9.414;2023-12-28T08:36:40;5.63;;;3.50;;
76656;SDS011;65576;47.714;9.414;2023-12-28T08:39:06;4.28;;;2.28;;
76656;SDS011;65576;47.714;9.414;2023-12-28T08:41:32;2.35;;;1.90;;
76656;SDS011;65576;47.714;9.414;2023-12-28T08:43:57;4.07;;;2.50;;
76656;SDS011;65576;47.714;9.414;2023-12-28T08:46:22;5.25;;;3.63;;
76656;SDS011;65576;47.714;9.414;2023-12-28T08:48:49;2.45;;;2.30;;
76656;SDS011;65576;47.714;9.414;2023-12-28T08:51:15;1.58;;;1.48;;
76656;SDS011;65576;47.714;9.414;2023-12-28T08:53:41;1.95;;;1.85;;
76656;SDS011;65576;47.714;9.414;2023-12-28T08:56:13;3.22;;;2.08;;
76656;SDS011;65576;47.714;9.414;2023-12-28T08:58:39;3.20;;;2.20;;
76656;SDS011;65576;47.714;9.414;2023-12-28T09:01:04;4.68;;;2.70;;
76656;SDS011;65576;47.714;9.414;2023-12-28T09:03:29;3.33;;;1.85;;
76656;SDS011;65576;47.714;9.414;2023-12-28T09:05:55;2.22;;;2.00;;
76656;SDS011;65576;47.714;9.414;2023-12-28T09:08:20;10.27;;;1.67;;
76656;SDS011;65576;47.714;9.414;2023-12-28T09:10:45;7.15;;;1.75;;
76656;SDS011;65576;47.714;9.414;2023-12-28T09:13:14;2.65;;;1.95;;
76656;SDS011;65576;47.714;9.414;2023-12-28T09:15:41;2.53;;;1.52;;
76656;SDS011;65576;47.714;9.414;2023-12-28T09:18:06;3.03;;;1.98;;
76656;SDS011;65576;47.714;9.414;2023-12-28T09:20:31;1.98;;;1.80;;
76656;SDS011;65576;47.714;9.414;2023-12-28T09:22:57;1.45;;;1.35;;
76656;SDS011;65576;47.714;9.414;2023-12-28T09:25:22;6.93;;;4.05;;
76656;SDS011;65576;47.714;9.414;2023-12-28T09:27:47;2.75;;;2.08;;
76656;SDS011;65576;47.714;9.414;2023-12-28T09:30:13;2.65;;;2.00;;
76656;SDS011;65576;47.714;9.414;2023-12-28T09:32:38;4.90;;;2.80;;
76656;SDS011;65576;47.714;9.414;2023-12-28T09:35:04;3.00;;;2.50;;
76656;SDS011;65576;47.714;9.414;2023-12-28T09:37:29;2.00;;;1.20;;
76656;SDS011;65576;47.714;9.414;2023-12-28T09:39:55;6.28;;;2.33;;
76656;SDS011;65576;47.714;9.414;2023-12-28T09:42:24;2.95;;;2.63;;
76656;SDS011;65576;47.714;9.414;2023-12-28T09:44:51;4.90;;;2.53;;
76656;SDS011;65576;47.714;9.414;2023-12-28T09:47:17;1.85;;;1.73;;
76656;SDS011;65576;47.714;9.414;2023-12-28T09:49:42;3.75;;;2.42;;
76656;SDS011;65576;47.714;9.414;2023-12-28T09:52:08;2.72;;;1.85;;
76656;SDS011;65576;47.714;9.414;2023-12-28T09:54:34;2.03;;;1.73;;
76656;SDS011;65576;47.714;9.414;2023-12-28T09:56:59;3.78;;;2.80;;
76656;SDS011;65576;47.714;9.414;2023-12-28T09:59:26;3.42;;;2.60;;
76656;SDS011;65576;47.714;9.414;2023-12-28T10:01:51;2.83;;;2.35;;
76656;SDS011;65576;47.714;9.414;2023-12-28T10:04:19;5.50;;;2.78;;
76656;SDS011;65576;47.714;9.414;2023-12-28T10:06:45;3.90;;;3.13;;
76656;SDS011;65576;47.714;9.414;2023-12-28T10:09:10;2.95;;;2.25;;
76656;SDS011;65576;47.714;9.414;2023-12-28T10:11:36;6.53;;;2.63;;
76656;SDS011;65576;47.714;9.414;2023-12-28T10:14:01;3.03;;;2.38;;
76656;SDS011;65576;47.714;9.414;2023-12-28T10:16:27;4.72;;;2.90;;
76656;SDS011;65576;47.714;9.414;2023-12-28T10:18:52;2.25;;;2.05;;
76656;SDS011;65576;47.714;9.414;2023-12-28T10:21:17;7.88;;;3.63;;
76656;SDS011;65576;47.714;9.414;2023-12-28T10:23:43;7.63;;;3.85;;
76656;SDS011;65576;47.714;9.414;2023-12-28T10:26:08;3.17;;;2.67;;
76656;SDS011;65576;47.714;9.414;2023-12-28T10:28:34;5.20;;;3.13;;
76656;SDS011;65576;47.714;9.414;2023-12-28T10:31:01;3.65;;;3.35;;
76656;SDS011;65576;47.714;9.414;2023-12-28T10:33:26;3.53;;;2.40;;
76656;SDS011;65576;47.714;9.414;2023-12-28T10:35:52;6.32;;;3.33;;
76656;SDS011;65576;47.714;9.414;2023-12-28T10:38:17;3.30;;;3.00;;
76656;SDS011;65576;47.714;9.414;2023-12-28T10:40:44;6.63;;;3.42;;
76656;SDS011;65576;47.714;9.414;2023-12-28T10:43:11;5.93;;;4.10;;
76656;SDS011;65576;47.714;9.414;2023-12-28T10:45:37;3.65;;;3.20;;
76656;SDS011;65576;47.714;9.414;2023-12-28T10:48:05;4.30;;;3.33;;
76656;SDS011;65576;47.714;9.414;2023-12-28T11:01:42;4.20;;;3.20;;
76656;SDS011;65576;47.714;9.414;2023-12-28T11:04:23;8.68;;;5.60;;
76656;SDS011;65576;47.714;9.414;2023-12-28T11:06:52;12.13;;;6.25;;
76656;SDS011;65576;47.714;9.414;2023-12-28T11:09:18;11.45;;;5.07;;
76656;SDS011;65576;47.714;9.414;2023-12-28T11:11:46;6.35;;;4.93;;
76656;SDS011;65576;47.714;9.414;2023-12-28T11:14:12;6.03;;;4.80;;
76656;SDS011;65576;47.714;9.414;2023-12-28T11:16:37;5.45;;;4.15;;
76656;SDS011;65576;47.714;9.414;2023-12-28T11:19:04;4.60;;;3.60;;
76656;SDS011;65576;47.714;9.414;2023-12-28T11:21:29;5.90;;;3.92;;
76656;SDS011;65576;47.714;9.414;2023-12-28T11:23:55;7.10;;;5.07;;
76656;SDS011;65576;47.714;9.414;2023-12-28T11:26:21;10.20;;;5.47;;
76656;SDS011;65576;47.714;9.414;2023-12-28T11:28:46;7.72;;;6.22;;
76656;SDS011;65576;47.714;9.414;2023-12-28T11:31:15;9.48;;;4.72;;
76656;SDS011;65576;47.714;9.414;2023-12-28T11:33:45;5.47;;;4.30;;
76656;SDS011;65576;47.714;9.414;2023-12-28T11:36:10;10.60;;;5.53;;
76656;SDS011;65576;47.714;9.414;2023-12-28T11:38:36;7.18;;;4.53;;
76656;SDS011;65576;47.714;9.414;2023-12-28T11:41:03;5.07;;;4.13;;
76656;SDS011;65576;47.714;9.414;2023-12-28T11:43:28;5.40;;;4.32;;
76656;SDS011;65576;47.714;9.414;2023-12-28T11:45:58;6.75;;;4.32;;
76656;SDS011;65576;47.714;9.414;2023-12-28T11:48:24;6.82;;;4.53;;
76656;SDS011;65576;47.714;9.414;2023-12-28T11:50:52;7.50;;;3.40;;
76656;SDS011;65576;47.714;9.414;2023-12-28T11:53:19;3.85;;;3.25;;
76656;SDS011;65576;47.714;9.414;2023-12-28T11:55:45;3.70;;;2.78;;
76656;SDS011;65576;47.714;9.414;2023-12-28T11:58:10;4.07;;;2.60;;
76656;SDS011;65576;47.714;9.414;2023-12-28T12:00:35;4.97;;;3.67;;
76656;SDS011;65576;47.714;9.414;2023-12-28T12:03:01;5.03;;;3.72;;
76656;SDS011;65576;47.714;9.414;2023-12-28T12:05:27;2.72;;;2.45;;
76656;SDS011;65576;47.714;9.414;2023-12-28T12:07:52;3.63;;;2.85;;
76656;SDS011;65576;47.714;9.414;2023-12-28T12:10:18;3.95;;;3.20;;
76656;SDS011;65576;47.714;9.414;2023-12-28T12:12:43;4.15;;;2.90;;
76656;SDS011;65576;47.714;9.414;2023-12-28T12:15:09;5.50;;;3.55;;
76656;SDS011;65576;47.714;9.414;2023-12-28T12:17:34;11.20;;;5.03;;
76656;SDS011;65576;47.714;9.414;2023-12-28T12:20:00;3.42;;;2.95;;
76656;SDS011;65576;47.714;9.414;2023-12-28T12:22:27;6.90;;;3.80;;
76656;SDS011;65576;47.714;9.414;2023-12-28T12:24:52;4.45;;;3.10;;
76656;SDS011;65576;47.714;9.414;2023-12-28T12:27:18;4.75;;;2.88;;
76656;SDS011;65576;47.714;9.414;2023-12-28T12:29:43;3.92;;;3.22;;
76656;SDS011;65576;47.714;9.414;2023-12-28T12:32:09;3.85;;;3.30;;
76656;SDS011;65576;47.714;9.414;2023-12-28T12:34:35;6.95;;;3.92;;
76656;SDS011;65576;47.714;9.414;2023-12-28T12:37:00;4.47;;;3.50;;
76656;SDS011;65576;47.714;9.414;2023-12-28T12:39:25;9.80;;;3.83;;
76656;SDS011;65576;47.714;9.414;2023-12-28T12:41:51;7.72;;;4.10;;
76656;SDS011;65576;47.714;9.414;2023-12-28T12:44:19;3.80;;;3.15;;
76656;SDS011;65576;47.714;9.414;2023-12-28T12:46:44;5.45;;;3.63;;
76656;SDS011;65576;47.714;9.414;2023-12-28T12:49:10;4.15;;;3.10;;
76656;SDS011;65576;47.714;9.414;2023-12-28T12:51:35;7.70;;;3.78;;
76656;SDS011;65576;47.714;9.414;2023-12-28T12:54:01;4.22;;;2.85;;
76656;SDS011;65576;47.714;9.414;2023-12-28T12:56:30;5.65;;;3.83;;
76656;SDS011;65576;47.714;9.414;2023-12-28T12:58:56;3.20;;;2.88;;
76656;SDS011;65576;47.714;9.414;2023-12-28T13:01:22;5.18;;;2.83;;
76656;SDS011;65576;47.714;9.414;2023-12-28T13:03:48;3.47;;;2.47;;
76656;SDS011;65576;47.714;9.414;2023-12-28T13:06:14;4.38;;;2.67;;
76656;SDS011;65576;47.714;9.414;2023-12-28T13:08:39;3.08;;;2.50;;
76656;SDS011;65576;47.714;9.414;2023-12-28T13:11:05;9.23;;;5.05;;
76656;SDS011;65576;47.714;9.414;2023-12-28T13:13:33;3.90;;;3.08;;
76656;SDS011;65576;47.714;9.414;2023-12-28T13:15:59;5.70;;;2.88;;
76656;SDS011;65576;47.714;9.414;2023-12-28T13:18:25;3.83;;;2.47;;
76656;SDS011;65576;47.714;9.414;2023-12-28T13:20:50;5.63;;;3.60;;
76656;SDS011;65576;47.714;9.414;2023-12-28T13:23:15;4.05;;;3.20;;
76656;SDS011;65576;47.714;9.414;2023-12-28T13:25:41;7.45;;;3.85;;
76656;SDS011;65576;47.714;9.414;2023-12-28T13:28:06;14.93;;;5.57;;
76656;SDS011;65576;47.714;9.414;2023-12-28T13:30:32;5.25;;;4.32;;
76656;SDS011;65576;47.714;9.414;2023-12-28T13:32:57;5.82;;;4.60;;
76656;SDS011;65576;47.714;9.414;2023-12-28T13:35:22;6.80;;;3.42;;
76656;SDS011;65576;47.714;9.414;2023-12-28T13:37:48;4.90;;;3.50;;
76656;SDS011;65576;47.714;9.414;2023-12-28T13:40:13;4.35;;;3.28;;
76656;SDS011;65576;47.714;9.414;2023-12-28T13:42:40;6.68;;;3.38;;
76656;SDS011;65576;47.714;9.414;2023-12-28T13:45:06;3.60;;;3.00;;
76656;SDS011;65576;47.714;9.414;2023-12-28T13:47:32;3.70;;;2.90;;
76656;SDS011;65576;47.714;9.414;2023-12-28T13:49:57;3.00;;;2.70;;
76656;SDS011;65576;47.714;9.414;2023-12-28T13:52:22;3.10;;;2.83;;
76656;SDS011;65576;47.714;9.414;2023-12-28T13:54:47;3.63;;;3.20;;
76656;SDS011;65576;47.714;9.414;2023-12-28T13:57:13;9.93;;;3.10;;
76656;SDS011;65576;47.714;9.414;2023-12-28T13:59:38;4.68;;;3.72;;
76656;SDS011;65576;47.714;9.414;2023-12-28T14:02:04;2.88;;;2.58;;
76656;SDS011;65576;47.714;9.414;2023-12-28T14:04:29;4.60;;;2.92;;
76656;SDS011;65576;47.714;9.414;2023-12-28T14:06:54;4.15;;;2.67;;
76656;SDS011;65576;47.714;9.414;2023-12-28T14:09:20;4.43;;;2.80;;
76656;SDS011;65576;47.714;9.414;2023-12-28T14:11:46;3.75;;;2.60;;
76656;SDS011;65576;47.714;9.414;2023-12-28T14:14:12;9.15;;;4.05;;
76656;SDS011;65576;47.714;9.414;2023-12-28T14:16:38;4.47;;;2.63;;
76656;SDS011;65576;47.714;9.414;2023-12-28T14:19:03;4.10;;;2.88;;
76656;SDS011;65576;47.714;9.414;2023-12-28T14:21:28;7.10;;;4.05;;
76656;SDS011;65576;47.714;9.414;2023-12-28T14:23:54;4.93;;;3.88;;
76656;SDS011;65576;47.714;9.414;2023-12-28T14:26:19;6.82;;;4.53;;
76656;SDS011;65576;47.714;9.414;2023-12-28T14:28:46;6.72;;;4.47;;
76656;SDS011;65576;47.714;9.414;2023-12-28T14:31:12;9.75;;;3.97;;
76656;SDS011;65576;47.714;9.414;2023-12-28T14:33:38;12.57;;;5.70;;
76656;SDS011;65576;47.714;9.414;2023-12-28T14:36:22;5.75;;;3.67;;
76656;SDS011;65576;47.714;9.414;2023-12-28T14:38:57;8.82;;;4.38;;
76656;SDS011;65576;47.714;9.414;2023-12-28T14:41:23;5.95;;;3.60;;
76656;SDS011;65576;47.714;9.414;2023-12-28T14:43:48;5.15;;;3.60;;
76656;SDS011;65576;47.714;9.414;2023-12-28T14:46:13;4.88;;;3.17;;
76656;SDS011;65576;47.714;9.414;2023-12-28T14:48:39;2.75;;;2.50;;
76656;SDS011;65576;47.714;9.414;2023-12-28T14:51:04;3.55;;;2.65;;
76656;SDS011;65576;47.714;9.414;2023-12-28T14:53:30;3.92;;;2.47;;